< Cyclone 197607 1976 Season Cyclone 197609 >
Cyclone 197608 (ALAN)
General InformationTrack Information on Google Maps || ResourceGoogle EarthGE AnimationAtom FeedGeoJSON
Detalied Best Track (Time Zone = UTC)
Year Month Day Hour Lat. Long. Pressure (hPa) Wind (kt) Class Image Chart
1976 1 29 23 -12.4 162.0 1007 0 0 -- --
1976 1 30 05 -12.4 161.0 1005 0 0 -- --
1976 1 30 11 -12.6 160.0 1007 0 0 -- --
1976 1 30 17 -12.8 158.5 1005 0 0 -- --
1976 1 30 23 -13.0 157.0 1004 0 0 -- --
1976 1 31 05 -14.2 154.8 1003 0 0 -- --
1976 1 31 11 -15.1 152.3 1002 0 0 -- --
1976 1 31 17 -15.5 150.0 998 0 0 -- --
1976 1 31 23 -15.7 148.0 994 0 0 -- --
1976 2 1 05 -15.7 146.6 995 0 0 -- --
1976 2 1 11 -15.5 145.3 996 0 0 -- --
1976 2 1 14 -15.3 144.7 997 0 0 -- --
1976 2 1 17 -15.6 143.6 998 0 0 -- --
1976 2 1 23 -16.9 142.0 1001 0 0 -- --
1976 2 2 05 -17.5 140.9 998 0 0 -- --
1976 2 2 11 -17.8 140.3 999 0 0 -- --
1976 2 2 17 -18.2 138.9 1000 0 0 -- --
1976 2 2 23 -18.6 137.2 1003 0 0 -- --
1976 2 3 05 -18.8 136.6 999 0 0 -- --
1976 2 3 11 -19.0 136.2 998 0 0 -- --
1976 2 3 17 -19.2 136.0 997 0 0 -- --
1976 2 3 23 -19.2 135.7 996 0 0 -- --
1976 2 4 05 -19.2 135.3 992 0 0 -- --
1976 2 4 11 -19.2 134.9 993 0 0 -- --
1976 2 4 17 -19.2 134.4 992 0 0 -- --
1976 2 4 23 -19.2 133.8 993 0 0 -- --
1976 2 5 02 -19.3 133.6 992 0 0 -- --
1976 2 5 05 -19.5 133.6 991 0 0 -- --
1976 2 5 11 -19.9 133.7 989 0 0 -- --
1976 2 5 17 -20.0 133.9 989 0 0 -- --
1976 2 5 23 -20.1 134.2 990 0 0 -- --
1976 2 6 02 -20.2 134.4 991 0 0 -- --
1976 2 6 05 -20.4 134.5 990 0 0 -- --
1976 2 6 11 -20.9 134.3 993 0 0 -- --
1976 2 6 17 -21.3 134.1 992 0 0 -- --
1976 2 6 23 -21.6 134.2 993 0 0 -- --
1976 2 7 05 -22.0 134.3 992 0 0 -- --
1976 2 7 11 -22.9 134.8 994 0 0 -- --
1976 2 7 17 -23.8 135.0 993 0 0 -- --
1976 2 7 23 -24.3 135.1 993 0 0 -- --
1976 2 8 05 -24.8 134.7 992 0 0 -- --
1976 2 8 08 -24.9 134.7 993 0 0 -- --
1976 2 8 11 -24.9 134.8 994 0 0 -- --
1976 2 8 17 -25.1 135.2 993 0 0 -- --
1976 2 8 23 -25.2 135.7 993 0 0 -- --
1976 2 9 05 -25.5 137.1 992 0 0 -- --
1976 2 9 11 -25.8 138.9 993 0 0 -- --
< Cyclone 197607 1976 Season Cyclone 197609 >

Help